createdAt,value
2023-04-01T00:00:54.088Z,60521.28
2023-04-01T00:03:23.704Z,60519.94
2023-04-01T00:05:54.702Z,60521.03
2023-04-01T00:08:23.034Z,60525.38
2023-04-01T00:10:51.707Z,60529.16
2023-04-01T00:13:20.806Z,60527.94
2023-04-01T00:15:49.706Z,60524.81
2023-04-01T00:18:18.222Z,60522.81
2023-04-01T00:20:48.449Z,60524.28
2023-04-01T00:23:18.503Z,60525.22
2023-04-01T00:25:49.217Z,60527.41
2023-04-01T00:28:18.633Z,60526.47
2023-04-01T00:30:46.981Z,60531.50
2023-04-01T00:33:16.100Z,60537.31
2023-04-01T00:35:44.559Z,60544.66
2023-04-01T00:38:13.078Z,60539.88
2023-04-01T00:40:45.377Z,60538.41
2023-04-01T00:43:15.893Z,60535.69
2023-04-01T00:45:45.554Z,60537.31
2023-04-01T00:48:18.433Z,60541.94
2023-04-01T00:50:50.988Z,60536.25
2023-04-01T00:53:21.373Z,60535.31
2023-04-01T00:55:57.632Z,60550.34
2023-04-01T00:58:27.865Z,60543.84
2023-04-01T01:00:57.442Z,60547.09
2023-04-01T01:03:26.487Z,60555.09
2023-04-01T01:06:10.661Z,60550.06
2023-04-01T01:09:00.978Z,60548.97
2023-04-01T01:11:43.234Z,60544.25
2023-04-01T01:14:31.423Z,60543.16
2023-04-01T01:17:07.921Z,60538.94
2023-04-01T01:20:19.194Z,60539.88
2023-04-01T01:23:31.997Z,60543.16
2023-04-01T01:26:19.656Z,60540.03
2023-04-01T01:28:59.352Z,60549.66
2023-04-01T01:31:36.532Z,60548.97
2023-04-01T01:34:17.491Z,60547.41
2023-04-01T01:36:51.219Z,60551.59
2023-04-01T01:39:21.868Z,60552.53
2023-04-01T01:41:51.227Z,60554.69
2023-04-01T01:44:20.919Z,60547.09
2023-04-01T01:46:50.613Z,60556.19
2023-04-01T01:49:21.069Z,60543.31
2023-04-01T01:51:51.055Z,60537.88
2023-04-01T01:54:20.326Z,60538.41
2023-04-01T01:56:53.229Z,60532.44
2023-04-01T01:59:23.363Z,60524.03
2023-04-01T02:01:54.837Z,60534.59
2023-04-01T02:04:24.610Z,60530.81
2023-04-01T02:06:58.481Z,60531.34
2023-04-01T02:09:27.120Z,60534.47
2023-04-01T02:11:59.842Z,60521.72
2023-04-01T02:14:34.952Z,60521.72
2023-04-01T02:17:09.188Z,60523.22
2023-04-01T02:19:41.700Z,60530.09
2023-04-01T02:22:15.462Z,60529.16
2023-04-01T02:24:46.424Z,60533.94
2023-04-01T02:27:14.903Z,60532.28
2023-04-01T02:29:43.321Z,60530.09
2023-04-01T02:32:12.358Z,60532.28
2023-04-01T02:34:41.170Z,60532.28
2023-04-01T02:37:11.119Z,60527.53
2023-04-01T02:39:39.516Z,60531.88
2023-04-01T02:42:08.198Z,60529.16
2023-04-01T02:44:36.861Z,60532.97
2023-04-01T02:47:05.645Z,60532.28
2023-04-01T02:49:34.138Z,60532.97
2023-04-01T02:52:02.486Z,60532.59
2023-04-01T02:54:32.164Z,60534.06
2023-04-01T02:57:00.678Z,60532.44
2023-04-01T02:59:29.071Z,60531.88
2023-04-01T03:01:57.503Z,60534.06
2023-04-01T03:04:26.172Z,60543.69
2023-04-01T03:06:54.520Z,60539.50
2023-04-01T03:09:22.870Z,60541.66
2023-04-01T03:11:52.589Z,60543.53
2023-04-01T03:14:20.961Z,60531.09
2023-04-01T03:16:49.548Z,60541.13
2023-04-01T03:19:17.998Z,60540.03
2023-04-01T03:21:46.305Z,60542.75
2023-04-01T03:24:14.722Z,60537.88
2023-04-01T03:26:43.103Z,60543.84
2023-04-01T03:29:12.776Z,60540.59
2023-04-01T03:31:41.124Z,60540.59
2023-04-01T03:34:10.047Z,60553.31
2023-04-01T03:36:38.532Z,60541.66
2023-04-01T03:39:07.181Z,60539.50
2023-04-01T03:41:38.078Z,60553.47
2023-04-01T03:44:06.619Z,60542.22
2023-04-01T03:46:36.485Z,60541.66
2023-04-01T03:49:12.281Z,60543.31
2023-04-01T03:51:41.218Z,60543.84
2023-04-01T03:54:10.501Z,60541.66
2023-04-01T03:56:39.629Z,60540.31
2023-04-01T03:59:09.300Z,60543.31
2023-04-01T04:01:39.128Z,60539.50
2023-04-01T04:04:07.696Z,60539.50
2023-04-01T04:06:36.213Z,60539.09
2023-04-01T04:09:04.771Z,60541.66
2023-04-01T04:11:33.800Z,60549.13
2023-04-01T04:14:03.084Z,60546.03
2023-04-01T04:16:31.484Z,60542.75
2023-04-01T04:19:01.241Z,60544.91
2023-04-01T04:21:29.580Z,60544.91
2023-04-01T04:23:57.954Z,60543.84
2023-04-01T04:26:26.701Z,60543.31
2023-04-01T04:28:56.372Z,60544.91
2023-04-01T04:31:26.621Z,60547.50
2023-04-01T04:33:55.114Z,60546.81
2023-04-01T04:36:24.932Z,60543.69
2023-04-01T04:38:53.311Z,60543.16
2023-04-01T04:41:22.985Z,60539.50
2023-04-01T04:43:54.255Z,60538.41
2023-04-01T04:46:23.608Z,60537.47
2023-04-01T04:48:52.002Z,60544.25
2023-04-01T04:51:21.775Z,60541.13
2023-04-01T04:53:53.014Z,60543.31
2023-04-01T04:56:22.108Z,60547.78
2023-04-01T04:58:50.987Z,60550.75
2023-04-01T05:01:19.938Z,60551.84
2023-04-01T05:03:48.802Z,60544.53
2023-04-01T05:06:18.619Z,60551.97
2023-04-01T05:08:47.575Z,60544.91
2023-04-01T05:11:19.273Z,60543.03
2023-04-01T05:13:48.071Z,60546.56
2023-04-01T05:16:19.191Z,60544.38
2023-04-01T05:18:48.054Z,60546.41
2023-04-01T05:21:17.018Z,60539.50
2023-04-01T05:23:45.479Z,60541.25
2023-04-01T05:26:16.075Z,60538.03
2023-04-01T05:28:45.787Z,60544.25
2023-04-01T05:31:14.250Z,60537.31
2023-04-01T05:33:42.742Z,60550.34
2023-04-01T05:36:13.818Z,60547.09
2023-04-01T05:38:43.490Z,60540.59
2023-04-01T05:41:11.900Z,60537.88
2023-04-01T05:43:40.890Z,60534.22
2023-04-01T05:46:10.943Z,60546.03
2023-04-01T05:48:39.351Z,60541.66
2023-04-01T05:51:07.850Z,60541.13
2023-04-01T05:53:36.178Z,60542.06
2023-04-01T05:56:05.412Z,60538.94
2023-04-01T05:58:33.726Z,60537.88
2023-04-01T06:01:10.152Z,60537.31
2023-04-01T06:03:44.297Z,60540.97
2023-04-01T06:06:16.958Z,60537.88
2023-04-01T06:08:45.903Z,60545.72
2023-04-01T06:11:26.460Z,60537.63
2023-04-01T06:14:12.393Z,60541.66
2023-04-01T06:16:51.162Z,60533.25
2023-04-01T06:19:36.283Z,60543.84
2023-04-01T06:22:22.747Z,60538.16
2023-04-01T06:25:06.688Z,60541.66
2023-04-01T06:27:52.588Z,60534.91
2023-04-01T06:30:37.110Z,60543.84
2023-04-01T06:33:18.194Z,60541.66
2023-04-01T06:36:01.970Z,60541.13
2023-04-01T06:38:50.426Z,60538.03
2023-04-01T06:41:34.753Z,60540.59
2023-04-01T06:44:17.013Z,60540.59
2023-04-01T06:46:49.157Z,60543.53
2023-04-01T06:49:35.567Z,60537.88
2023-04-01T06:52:19.142Z,60539.88
2023-04-01T06:54:51.387Z,60537.31
2023-04-01T06:57:26.706Z,60537.31
2023-04-01T06:59:59.436Z,60537.88
2023-04-01T07:02:35.741Z,60541.66
2023-04-01T07:05:06.394Z,60547.94
2023-04-01T07:07:43.414Z,60549.25
2023-04-01T07:10:17.691Z,60553.22
2023-04-01T07:12:48.903Z,60556.19
2023-04-01T07:15:22.412Z,60555.78
2023-04-01T07:17:55.526Z,60550.09
2023-04-01T07:20:28.401Z,60553.63
2023-04-01T07:23:01.180Z,60556.75
2023-04-01T07:25:33.195Z,60560.28
2023-04-01T07:28:05.758Z,60559.75
2023-04-01T07:30:45.537Z,60564.88
2023-04-01T07:33:21.671Z,60557.19
2023-04-01T07:35:58.342Z,60571.69
2023-04-01T07:38:39.450Z,60575.72
2023-04-01T07:41:16.773Z,60580.50
2023-04-01T07:43:57.343Z,60577.38
2023-04-01T07:46:48.975Z,60570.44
2023-04-01T07:49:21.863Z,60573.16
2023-04-01T07:51:59.697Z,60570.59
2023-04-01T07:54:40.440Z,60580.50
2023-04-01T07:57:14.456Z,60576.97
2023-04-01T07:59:53.857Z,60573.44
2023-04-01T08:02:37.020Z,60571.28
2023-04-01T08:05:21.418Z,60581.16
2023-04-01T08:07:59.634Z,60586.59
2023-04-01T08:10:33.884Z,60590.00
2023-04-01T08:13:11.816Z,60594.38
2023-04-01T08:15:46.895Z,60600.75
2023-04-01T08:18:25.417Z,60595.19
2023-04-01T08:20:59.541Z,60605.78
2023-04-01T08:23:30.516Z,60608.63
2023-04-01T08:26:05.528Z,60616.25
2023-04-01T08:28:39.281Z,60622.63
2023-04-01T08:31:14.565Z,60619.91
2023-04-01T08:33:45.245Z,60611.19
2023-04-01T08:36:18.520Z,60606.56
2023-04-01T08:38:53.147Z,60582.41
2023-04-01T08:41:43.914Z,60566.25
2023-04-01T08:44:44.090Z,60567.75
2023-04-01T08:47:29.923Z,60565.03
2023-04-01T08:50:37.221Z,60558.25
2023-04-01T08:53:14.305Z,60566.66
2023-04-01T08:55:58.517Z,60564.22
2023-04-01T08:58:52.047Z,60567.75
2023-04-01T09:01:36.237Z,60568.84
2023-04-01T09:04:20.825Z,60567.75
2023-04-01T09:06:54.683Z,60566.25
2023-04-01T09:09:54.686Z,60564.47
2023-04-01T09:12:38.582Z,60565.56
2023-04-01T09:15:39.377Z,60568.28
2023-04-01T09:18:48.962Z,60568.28
2023-04-01T09:21:36.434Z,60563.69
2023-04-01T09:24:32.523Z,60567.34
2023-04-01T09:27:12.831Z,60565.03
2023-04-01T09:30:05.682Z,60562.03
2023-04-01T09:33:04.364Z,60536.53
2023-04-01T09:35:48.461Z,60529.31
2023-04-01T09:38:24.707Z,60530.81
2023-04-01T09:41:00.302Z,60528.66
2023-04-01T09:43:42.006Z,60524.28
2023-04-01T09:46:20.729Z,60523.34
2023-04-01T09:49:20.355Z,60521.19
2023-04-01T09:52:03.058Z,60524.16
2023-04-01T09:54:45.555Z,60517.38
2023-04-01T09:57:42.551Z,60508.00
2023-04-01T10:00:41.201Z,60503.66
2023-04-01T10:03:58.806Z,60501.50
2023-04-01T10:07:00.285Z,60503.66
2023-04-01T10:10:13.644Z,60506.78
2023-04-01T10:13:35.727Z,60506.50
2023-04-01T10:16:26.422Z,60489.69
2023-04-01T10:19:22.703Z,60487.34
2023-04-01T10:22:33.496Z,60483.03
2023-04-01T10:25:41.365Z,60490.59
2023-04-01T10:28:32.916Z,60485.88
2023-04-01T10:31:38.230Z,60479.34
2023-04-01T10:34:21.242Z,60480.84
2023-04-01T10:36:55.396Z,60481.69
2023-04-01T10:39:56.984Z,60493.59
2023-04-01T10:42:52.774Z,60487.91
2023-04-01T10:46:08.547Z,60472.16
2023-04-01T10:49:26.164Z,60461.16
2023-04-01T10:52:32.429Z,60463.47
2023-04-01T10:55:30.708Z,60465.25
2023-04-01T10:58:29.362Z,60474.47
2023-04-01T11:01:18.690Z,60481.91
2023-04-01T11:04:20.130Z,60490.59
2023-04-01T11:07:37.587Z,60469.59
2023-04-01T11:10:38.218Z,60474.72
2023-04-01T11:13:39.160Z,60471.59
2023-04-01T11:16:37.024Z,60472.44
2023-04-01T11:19:39.597Z,60469.97
2023-04-01T11:22:34.198Z,60468.91
2023-04-01T11:25:23.043Z,60471.06
2023-04-01T11:28:09.706Z,60478.53
2023-04-01T11:30:56.739Z,60464.84
2023-04-01T11:33:30.707Z,60473.63
2023-04-01T11:36:11.517Z,60479.06
2023-04-01T11:39:01.206Z,60472.44
2023-04-01T11:41:39.473Z,60479.75
2023-04-01T11:44:18.964Z,60475.41
2023-04-01T11:47:02.496Z,60481.53
2023-04-01T11:49:53.190Z,60480.31
2023-04-01T11:52:36.832Z,60475.97
2023-04-01T11:55:19.358Z,60485.03
2023-04-01T11:58:10.890Z,60479.34
2023-04-01T12:00:57.770Z,60473.47
2023-04-01T12:04:08.117Z,60462.53
2023-04-01T12:06:46.534Z,60456.97
2023-04-01T12:09:25.335Z,60461.53
2023-04-01T12:12:05.330Z,60442.47
2023-04-01T12:14:44.290Z,60452.31
2023-04-01T12:17:27.921Z,60442.16
2023-04-01T12:20:04.058Z,60450.69
2023-04-01T12:22:48.410Z,60431.50
2023-04-01T12:25:29.306Z,60433.88
2023-04-01T12:28:10.286Z,60433.09
2023-04-01T12:30:48.789Z,60428.34
2023-04-01T12:33:38.742Z,60438.38
2023-04-01T12:36:20.445Z,60428.34
2023-04-01T12:39:09.645Z,60437.81
2023-04-01T12:41:48.776Z,60446.09
2023-04-01T12:44:36.579Z,60443.53
2023-04-01T12:47:26.398Z,60449.75
2023-04-01T12:50:08.296Z,60442.84
2023-04-01T12:52:47.227Z,60437.97
2023-04-01T12:55:46.515Z,60433.09
2023-04-01T12:58:37.884Z,60445.44
2023-04-01T13:01:21.822Z,60447.75
2023-04-01T13:04:14.969Z,60440.97
2023-04-01T13:06:54.817Z,60439.75
2023-04-01T13:09:35.707Z,60439.03
2023-04-01T13:12:26.365Z,60438.13
2023-04-01T13:15:11.702Z,60433.09
2023-04-01T13:17:49.747Z,60427.66
2023-04-01T13:20:29.368Z,60429.81
2023-04-01T13:23:10.237Z,60428.75
2023-04-01T13:25:47.034Z,60431.31
2023-04-01T13:28:24.102Z,60425.78
2023-04-01T13:31:04.189Z,60419.81
2023-04-01T13:33:40.848Z,60428.03
2023-04-01T13:36:19.139Z,60421.16
2023-04-01T13:39:05.976Z,60426.97
2023-04-01T13:41:50.825Z,60427.13
2023-04-01T13:44:30.109Z,60427.13
2023-04-01T13:47:26.032Z,60413.84
2023-04-01T13:50:18.904Z,60412.47
2023-04-01T13:53:06.067Z,60400.53
2023-04-01T13:55:51.435Z,60405.97
2023-04-01T13:58:37.606Z,60402.31
2023-04-01T14:01:17.455Z,60401.09
2023-04-01T14:04:13.855Z,60397.81
2023-04-01T14:06:55.020Z,60392.16
2023-04-01T14:09:42.411Z,60388.34
2023-04-01T14:12:21.794Z,60383.19
2023-04-01T14:15:04.997Z,60377.22
2023-04-01T14:17:52.372Z,60378.31
2023-04-01T14:20:31.325Z,60379.78
2023-04-01T14:23:15.579Z,60366.91
2023-04-01T14:25:57.360Z,60360.97
2023-04-01T14:28:36.210Z,60362.03
2023-04-01T14:31:29.206Z,60358.78
2023-04-01T14:34:13.442Z,60350.94
2023-04-01T14:36:55.309Z,60353.50
2023-04-01T14:39:42.269Z,60368.25
2023-04-01T14:42:27.679Z,60362.97
2023-04-01T14:45:34.254Z,60347.00
2023-04-01T14:48:19.776Z,60354.69
2023-04-01T14:50:53.590Z,60342.28
2023-04-01T14:53:31.198Z,60351.56
2023-04-01T14:56:01.196Z,60344.53
2023-04-01T14:58:44.911Z,60340.91
2023-04-01T15:01:33.523Z,60338.72
2023-04-01T15:04:15.934Z,60328.97
2023-04-01T15:07:00.608Z,60329.66
2023-04-01T15:09:34.612Z,60328.31
2023-04-01T15:12:17.784Z,60336.94
2023-04-01T15:15:05.695Z,60333.00
2023-04-01T15:17:57.013Z,60333.44
2023-04-01T15:20:44.010Z,60333.31
2023-04-01T15:23:26.632Z,60330.28
2023-04-01T15:26:14.735Z,60332.63
2023-04-01T15:28:52.189Z,60310.16
2023-04-01T15:31:28.412Z,60314.34
2023-04-01T15:34:14.423Z,60309.72
2023-04-01T15:36:46.547Z,60297.53
2023-04-01T15:39:26.598Z,60300.94
2023-04-01T15:42:13.750Z,60310.53
2023-04-01T15:44:52.336Z,60301.06
2023-04-01T15:47:34.228Z,60306.19
2023-04-01T15:50:27.103Z,60307.31
2023-04-01T15:53:10.952Z,60298.38
2023-04-01T15:55:46.034Z,60297.91
2023-04-01T15:58:30.132Z,60301.34
2023-04-01T16:01:10.994Z,60300.78
2023-04-01T16:03:47.988Z,60306.19
2023-04-01T16:06:36.416Z,60311.31
2023-04-01T16:09:15.383Z,60300.09
2023-04-01T16:11:56.677Z,60292.66
2023-04-01T16:14:39.952Z,60289.97
2023-04-01T16:17:28.560Z,60282.38
2023-04-01T16:20:02.444Z,60274.38
2023-04-01T16:22:36.519Z,60266.09
2023-04-01T16:25:22.505Z,60269.06
2023-04-01T16:27:58.244Z,60268.28
2023-04-01T16:30:37.164Z,60273.00
2023-04-01T16:33:12.038Z,60265.44
2023-04-01T16:35:46.677Z,60256.38
2023-04-01T16:38:23.560Z,60250.97
2023-04-01T16:41:05.754Z,60253.66
2023-04-01T16:43:47.322Z,60234.69
2023-04-01T16:46:36.332Z,60237.25
2023-04-01T16:49:27.546Z,60238.31
2023-04-01T16:52:01.751Z,60229.28
2023-04-01T16:54:33.672Z,60220.59
2023-04-01T16:57:06.817Z,60212.47
2023-04-01T16:59:39.760Z,60213.44
2023-04-01T17:02:15.220Z,60216.66
2023-04-01T17:04:47.095Z,60217.91
2023-04-01T17:07:29.002Z,60220.59
2023-04-01T17:10:20.475Z,60213.03
2023-04-01T17:12:59.366Z,60204.34
2023-04-01T17:15:40.815Z,60211.66
2023-04-01T17:18:15.435Z,60211.25
2023-04-01T17:20:48.167Z,60208.00
2023-04-01T17:23:24.119Z,60200.41
2023-04-01T17:26:17.616Z,60189.75
2023-04-01T17:28:51.820Z,60184.88
2023-04-01T17:31:36.403Z,60175.13
2023-04-01T17:34:16.469Z,60174.44
2023-04-01T17:37:03.701Z,60170.50
2023-04-01T17:39:43.485Z,60159.44
2023-04-01T17:42:16.823Z,60157.81
2023-04-01T17:44:56.311Z,60156.59
2023-04-01T17:47:51.173Z,60151.31
2023-04-01T17:50:25.890Z,60153.19
2023-04-01T17:53:20.422Z,60147.25
2023-04-01T17:55:57.577Z,60137.81
2023-04-01T17:58:35.796Z,60144.84
2023-04-01T18:01:23.995Z,60129.31
2023-04-01T18:04:17.859Z,60117.16
2023-04-01T18:07:31.938Z,60129.53
2023-04-01T18:10:14.319Z,60125.75
2023-04-01T18:12:58.598Z,60120.50
2023-04-01T18:15:33.603Z,60119.94
2023-04-01T18:18:13.074Z,60119.41
2023-04-01T18:20:53.042Z,60121.25
2023-04-01T18:23:32.267Z,60124.91
2023-04-01T18:26:07.565Z,60110.22
2023-04-01T18:28:40.507Z,60112.38
2023-04-01T18:31:15.314Z,60114.25
2023-04-01T18:33:51.551Z,60116.00
2023-04-01T18:36:35.430Z,60118.19
2023-04-01T18:39:10.311Z,60111.28
2023-04-01T18:41:49.710Z,60115.84
2023-04-01T18:44:30.846Z,60112.78
2023-04-01T18:47:12.638Z,60112.06
2023-04-01T18:49:46.049Z,60116.94
2023-04-01T18:52:22.932Z,60100.78
2023-04-01T18:55:30.858Z,60111.00
2023-04-01T18:58:15.662Z,60100.88
2023-04-01T19:00:52.073Z,60104.50
2023-04-01T19:03:25.241Z,60105.59
2023-04-01T19:05:57.833Z,60100.47
2023-04-01T19:08:33.662Z,60101.94
2023-04-01T19:11:12.020Z,60098.16
2023-04-01T19:13:51.017Z,60094.00
2023-04-01T19:16:28.678Z,60096.53
2023-04-01T19:19:23.788Z,60082.09
2023-04-01T19:21:58.921Z,60079.94
2023-04-01T19:24:51.922Z,60084.66
2023-04-01T19:27:32.666Z,60082.88
2023-04-01T19:30:14.830Z,60078.94
2023-04-01T19:32:54.170Z,60061.94
2023-04-01T19:35:35.691Z,60060.47
2023-04-01T19:38:12.331Z,60063.72
2023-04-01T19:40:54.003Z,60062.63
2023-04-01T19:43:39.399Z,60054.38
2023-04-01T19:46:19.429Z,60051.13
2023-04-01T19:49:05.125Z,60050.06
2023-04-01T19:51:40.987Z,60047.50
2023-04-01T19:54:24.069Z,60041.31
2023-04-01T19:57:03.366Z,60049.50
2023-04-01T19:59:37.544Z,60052.22
2023-04-01T20:02:32.900Z,60045.97
2023-04-01T20:05:18.862Z,60028.03
2023-04-01T20:07:54.137Z,60031.28
2023-04-01T20:10:32.394Z,60031.97
2023-04-01T20:13:11.856Z,60028.19
2023-04-01T20:15:43.617Z,60034.91
2023-04-01T20:18:18.699Z,60032.06
2023-04-01T20:20:57.120Z,60022.09
2023-04-01T20:23:41.445Z,60026.66
2023-04-01T20:26:12.462Z,60022.88
2023-04-01T20:28:50.807Z,60018.31
2023-04-01T20:31:27.960Z,60014.00
2023-04-01T20:34:27.653Z,60009.28
2023-04-01T20:37:04.412Z,60012.38
2023-04-01T20:39:54.654Z,60014.53
2023-04-01T20:42:36.512Z,60014.22
2023-04-01T20:45:25.518Z,60007.38
2023-04-01T20:48:07.848Z,60001.00
2023-04-01T20:50:44.733Z,59997.78
2023-04-01T20:53:18.118Z,59998.00
2023-04-01T20:56:12.718Z,59988.06
2023-04-01T20:58:53.624Z,59996.94
2023-04-01T21:01:30.998Z,59991.16
2023-04-01T21:04:15.773Z,59988.06
2023-04-01T21:06:54.740Z,59981.03
2023-04-01T21:09:36.389Z,59985.91
2023-04-01T21:12:22.609Z,59984.13
2023-04-01T21:15:17.708Z,59982.50
2023-04-01T21:17:54.142Z,59977.66
2023-04-01T21:20:45.484Z,59983.41
2023-04-01T21:23:23.240Z,59983.03
2023-04-01T21:26:07.284Z,59979.94
2023-04-01T21:28:50.617Z,59981.81
2023-04-01T21:31:32.626Z,59978.16
2023-04-01T21:34:41.243Z,59975.09
2023-04-01T21:37:24.765Z,59976.72
2023-04-01T21:40:13.380Z,59975.09
2023-04-01T21:42:53.095Z,59976.56
2023-04-01T21:45:49.330Z,59978.03
2023-04-01T21:48:40.015Z,59976.94
2023-04-01T21:51:59.545Z,59973.72
2023-04-01T21:55:00.857Z,59971.00
2023-04-01T21:58:15.123Z,59973.00
2023-04-01T22:00:50.676Z,59960.50
2023-04-01T22:03:54.819Z,59965.06
2023-04-01T22:06:34.627Z,59961.03
2023-04-01T22:09:15.117Z,59954.41
2023-04-01T22:12:02.347Z,59953.72
2023-04-01T22:14:41.293Z,59952.41
2023-04-01T22:17:17.945Z,59962.34
2023-04-01T22:19:56.153Z,59962.34
2023-04-01T22:22:36.874Z,59949.72
2023-04-01T22:25:13.547Z,59950.09
2023-04-01T22:27:48.434Z,59952.09
2023-04-01T22:30:24.660Z,59937.44
2023-04-01T22:32:58.844Z,59942.00
2023-04-01T22:35:37.393Z,59942.16
2023-04-01T22:38:17.025Z,59943.09
2023-04-01T22:40:55.058Z,59943.75
2023-04-01T22:43:29.659Z,59939.84
2023-04-01T22:46:12.227Z,59949.25
2023-04-01T22:48:46.430Z,59946.72
2023-04-01T22:51:20.274Z,59944.69
2023-04-01T22:54:01.650Z,59943.25
2023-04-01T22:56:35.914Z,59940.38
2023-04-01T22:59:12.687Z,59937.13
2023-04-01T23:01:46.925Z,59940.75
2023-04-01T23:04:19.302Z,59934.59
2023-04-01T23:06:52.024Z,59943.09
2023-04-01T23:09:25.755Z,59945.63
2023-04-01T23:11:57.442Z,59940.38
2023-04-01T23:14:45.195Z,59939.16
2023-04-01T23:17:30.571Z,59932.28
2023-04-01T23:20:06.886Z,59930.66
2023-04-01T23:22:40.036Z,59927.56
2023-04-01T23:25:25.426Z,59929.44
2023-04-01T23:27:58.459Z,59924.03
2023-04-01T23:30:52.400Z,59923.09
2023-04-01T23:33:29.334Z,59933.75
2023-04-01T23:36:06.182Z,59927.97
2023-04-01T23:38:43.232Z,59922.56
2023-04-01T23:41:21.439Z,59923.47
2023-04-01T23:43:57.402Z,59924.19
2023-04-01T23:46:27.794Z,59924.03
2023-04-01T23:48:57.667Z,59928.72
2023-04-01T23:51:30.175Z,59926.19
2023-04-01T23:54:03.954Z,59927.41
2023-04-01T23:56:42.816Z,59916.09
2023-04-01T23:59:18.538Z,59919.72
